sensor_id;sensor_type;location;lat;lon;timestamp;P1;durP1;ratioP1;P2;durP2;ratioP2
13868;SDS011;7004;48.206;16.402;2023-04-28T00:02:17;7.70;;;4.83;;
13868;SDS011;7004;48.206;16.402;2023-04-28T00:04:43;5.77;;;4.70;;
13868;SDS011;7004;48.206;16.402;2023-04-28T00:07:09;8.10;;;4.27;;
13868;SDS011;7004;48.206;16.402;2023-04-28T00:09:35;7.73;;;4.63;;
13868;SDS011;7004;48.206;16.402;2023-04-28T00:12:02;7.00;;;4.30;;
13868;SDS011;7004;48.206;16.402;2023-04-28T00:14:28;7.37;;;4.47;;
13868;SDS011;7004;48.206;16.402;2023-04-28T00:16:54;6.83;;;4.20;;
13868;SDS011;7004;48.206;16.402;2023-04-28T00:19:22;9.13;;;4.80;;
13868;SDS011;7004;48.206;16.402;2023-04-28T00:21:49;8.63;;;4.40;;
13868;SDS011;7004;48.206;16.402;2023-04-28T00:24:15;6.33;;;5.00;;
13868;SDS011;7004;48.206;16.402;2023-04-28T00:26:41;10.00;;;4.70;;
13868;SDS011;7004;48.206;16.402;2023-04-28T00:29:07;8.53;;;4.90;;
13868;SDS011;7004;48.206;16.402;2023-04-28T00:31:33;9.73;;;5.03;;
13868;SDS011;7004;48.206;16.402;2023-04-28T00:33:59;9.00;;;5.37;;
13868;SDS011;7004;48.206;16.402;2023-04-28T00:36:25;5.67;;;4.60;;
13868;SDS011;7004;48.206;16.402;2023-04-28T00:38:56;10.27;;;5.40;;
13868;SDS011;7004;48.206;16.402;2023-04-28T00:41:22;8.60;;;5.43;;
13868;SDS011;7004;48.206;16.402;2023-04-28T00:43:49;10.37;;;5.57;;
13868;SDS011;7004;48.206;16.402;2023-04-28T00:46:19;7.83;;;5.00;;
13868;SDS011;7004;48.206;16.402;2023-04-28T00:48:49;10.40;;;5.67;;
13868;SDS011;7004;48.206;16.402;2023-04-28T00:51:15;10.97;;;5.70;;
13868;SDS011;7004;48.206;16.402;2023-04-28T00:53:42;8.97;;;5.27;;
13868;SDS011;7004;48.206;16.402;2023-04-28T00:56:08;9.43;;;5.23;;
13868;SDS011;7004;48.206;16.402;2023-04-28T00:58:36;7.93;;;4.87;;
13868;SDS011;7004;48.206;16.402;2023-04-28T01:01:03;7.83;;;5.37;;
13868;SDS011;7004;48.206;16.402;2023-04-28T01:03:38;10.57;;;5.07;;
13868;SDS011;7004;48.206;16.402;2023-04-28T01:06:08;9.60;;;5.73;;
13868;SDS011;7004;48.206;16.402;2023-04-28T01:08:35;8.03;;;5.43;;
13868;SDS011;7004;48.206;16.402;2023-04-28T01:11:02;10.63;;;5.50;;
13868;SDS011;7004;48.206;16.402;2023-04-28T01:13:28;9.57;;;5.77;;
13868;SDS011;7004;48.206;16.402;2023-04-28T01:15:55;8.00;;;5.77;;
13868;SDS011;7004;48.206;16.402;2023-04-28T01:18:21;10.77;;;6.30;;
13868;SDS011;7004;48.206;16.402;2023-04-28T01:20:49;9.70;;;5.70;;
13868;SDS011;7004;48.206;16.402;2023-04-28T01:23:16;13.30;;;5.87;;
13868;SDS011;7004;48.206;16.402;2023-04-28T01:25:42;7.33;;;5.90;;
13868;SDS011;7004;48.206;16.402;2023-04-28T01:28:09;8.97;;;5.83;;
13868;SDS011;7004;48.206;16.402;2023-04-28T01:30:36;8.53;;;6.27;;
13868;SDS011;7004;48.206;16.402;2023-04-28T01:33:02;13.03;;;6.27;;
13868;SDS011;7004;48.206;16.402;2023-04-28T01:35:28;12.17;;;6.70;;
13868;SDS011;7004;48.206;16.402;2023-04-28T01:37:55;10.63;;;6.60;;
13868;SDS011;7004;48.206;16.402;2023-04-28T01:40:22;8.83;;;6.50;;
13868;SDS011;7004;48.206;16.402;2023-04-28T01:42:48;9.00;;;6.27;;
13868;SDS011;7004;48.206;16.402;2023-04-28T01:45:15;10.57;;;6.67;;
13868;SDS011;7004;48.206;16.402;2023-04-28T01:47:43;9.10;;;6.33;;
13868;SDS011;7004;48.206;16.402;2023-04-28T01:50:10;10.93;;;6.53;;
13868;SDS011;7004;48.206;16.402;2023-04-28T01:52:36;10.80;;;6.50;;
13868;SDS011;7004;48.206;16.402;2023-04-28T01:55:02;8.53;;;6.17;;
13868;SDS011;7004;48.206;16.402;2023-04-28T01:57:29;12.13;;;6.60;;
13868;SDS011;7004;48.206;16.402;2023-04-28T01:59:56;8.03;;;5.93;;
13868;SDS011;7004;48.206;16.402;2023-04-28T02:02:24;9.47;;;5.77;;
13868;SDS011;7004;48.206;16.402;2023-04-28T02:04:50;7.03;;;5.57;;
13868;SDS011;7004;48.206;16.402;2023-04-28T02:07:16;10.13;;;5.80;;
13868;SDS011;7004;48.206;16.402;2023-04-28T02:09:42;6.53;;;5.63;;
13868;SDS011;7004;48.206;16.402;2023-04-28T02:12:08;12.87;;;6.43;;
13868;SDS011;7004;48.206;16.402;2023-04-28T02:14:35;9.87;;;5.73;;
13868;SDS011;7004;48.206;16.402;2023-04-28T02:17:01;8.80;;;6.27;;
13868;SDS011;7004;48.206;16.402;2023-04-28T02:19:30;13.47;;;6.17;;
13868;SDS011;7004;48.206;16.402;2023-04-28T02:21:58;10.30;;;6.00;;
13868;SDS011;7004;48.206;16.402;2023-04-28T02:24:24;11.70;;;6.47;;
13868;SDS011;7004;48.206;16.402;2023-04-28T02:26:50;7.07;;;6.07;;
13868;SDS011;7004;48.206;16.402;2023-04-28T02:29:16;9.90;;;6.53;;
13868;SDS011;7004;48.206;16.402;2023-04-28T02:31:42;7.27;;;5.63;;
13868;SDS011;7004;48.206;16.402;2023-04-28T02:34:08;9.57;;;5.97;;
13868;SDS011;7004;48.206;16.402;2023-04-28T02:36:34;10.63;;;6.33;;
13868;SDS011;7004;48.206;16.402;2023-04-28T02:39:01;8.53;;;6.10;;
13868;SDS011;7004;48.206;16.402;2023-04-28T02:41:27;10.07;;;6.10;;
13868;SDS011;7004;48.206;16.402;2023-04-28T02:43:55;9.67;;;5.97;;
13868;SDS011;7004;48.206;16.402;2023-04-28T02:46:21;8.63;;;5.93;;
13868;SDS011;7004;48.206;16.402;2023-04-28T02:48:47;11.13;;;6.37;;
13868;SDS011;7004;48.206;16.402;2023-04-28T02:51:13;10.73;;;5.87;;
13868;SDS011;7004;48.206;16.402;2023-04-28T02:53:40;9.30;;;6.00;;
13868;SDS011;7004;48.206;16.402;2023-04-28T02:56:06;8.27;;;5.20;;
13868;SDS011;7004;48.206;16.402;2023-04-28T02:58:32;7.77;;;6.03;;
13868;SDS011;7004;48.206;16.402;2023-04-28T03:00:58;9.43;;;5.30;;
13868;SDS011;7004;48.206;16.402;2023-04-28T03:03:25;8.73;;;6.00;;
13868;SDS011;7004;48.206;16.402;2023-04-28T03:06:01;11.10;;;5.87;;
13868;SDS011;7004;48.206;16.402;2023-04-28T03:08:29;8.33;;;5.60;;
13868;SDS011;7004;48.206;16.402;2023-04-28T03:10:57;8.27;;;6.23;;
13868;SDS011;7004;48.206;16.402;2023-04-28T03:13:24;7.00;;;5.67;;
13868;SDS011;7004;48.206;16.402;2023-04-28T03:15:58;7.83;;;6.03;;
13868;SDS011;7004;48.206;16.402;2023-04-28T03:18:28;9.37;;;6.50;;
13868;SDS011;7004;48.206;16.402;2023-04-28T03:21:01;7.87;;;6.17;;
13868;SDS011;7004;48.206;16.402;2023-04-28T03:23:30;10.53;;;6.30;;
13868;SDS011;7004;48.206;16.402;2023-04-28T03:25:58;8.27;;;6.00;;
13868;SDS011;7004;48.206;16.402;2023-04-28T03:28:27;10.97;;;6.07;;
13868;SDS011;7004;48.206;16.402;2023-04-28T03:30:57;9.97;;;6.20;;
13868;SDS011;7004;48.206;16.402;2023-04-28T03:33:24;11.87;;;5.93;;
13868;SDS011;7004;48.206;16.402;2023-04-28T03:35:51;11.37;;;6.03;;
13868;SDS011;7004;48.206;16.402;2023-04-28T03:38:18;8.20;;;6.13;;
13868;SDS011;7004;48.206;16.402;2023-04-28T03:40:44;12.00;;;6.17;;
13868;SDS011;7004;48.206;16.402;2023-04-28T03:43:11;11.07;;;6.20;;
13868;SDS011;7004;48.206;16.402;2023-04-28T03:45:37;10.97;;;6.67;;
13868;SDS011;7004;48.206;16.402;2023-04-28T03:48:05;10.77;;;6.43;;
13868;SDS011;7004;48.206;16.402;2023-04-28T03:50:32;8.13;;;6.00;;
13868;SDS011;7004;48.206;16.402;2023-04-28T03:52:58;8.93;;;6.40;;
13868;SDS011;7004;48.206;16.402;2023-04-28T03:55:24;9.37;;;6.40;;
13868;SDS011;7004;48.206;16.402;2023-04-28T03:57:51;10.27;;;6.23;;
13868;SDS011;7004;48.206;16.402;2023-04-28T04:00:18;8.03;;;6.47;;
13868;SDS011;7004;48.206;16.402;2023-04-28T04:02:45;10.73;;;7.00;;
13868;SDS011;7004;48.206;16.402;2023-04-28T04:05:11;9.27;;;6.43;;
13868;SDS011;7004;48.206;16.402;2023-04-28T04:07:37;10.03;;;6.60;;
13868;SDS011;7004;48.206;16.402;2023-04-28T04:10:03;11.67;;;6.40;;
13868;SDS011;7004;48.206;16.402;2023-04-28T04:12:30;9.97;;;5.97;;
13868;SDS011;7004;48.206;16.402;2023-04-28T04:14:56;7.97;;;6.13;;
13868;SDS011;7004;48.206;16.402;2023-04-28T04:17:23;13.27;;;7.00;;
13868;SDS011;7004;48.206;16.402;2023-04-28T04:19:49;9.10;;;6.30;;
13868;SDS011;7004;48.206;16.402;2023-04-28T04:22:15;8.63;;;6.27;;
13868;SDS011;7004;48.206;16.402;2023-04-28T04:24:41;8.87;;;6.43;;
13868;SDS011;7004;48.206;16.402;2023-04-28T04:27:07;8.37;;;6.33;;
13868;SDS011;7004;48.206;16.402;2023-04-28T04:29:33;13.17;;;7.20;;
13868;SDS011;7004;48.206;16.402;2023-04-28T04:31:59;8.33;;;6.50;;
13868;SDS011;7004;48.206;16.402;2023-04-28T04:34:25;10.00;;;7.00;;
13868;SDS011;7004;48.206;16.402;2023-04-28T04:36:51;8.47;;;6.60;;
13868;SDS011;7004;48.206;16.402;2023-04-28T04:39:17;12.40;;;6.47;;
13868;SDS011;7004;48.206;16.402;2023-04-28T04:41:43;9.57;;;6.67;;
13868;SDS011;7004;48.206;16.402;2023-04-28T04:44:09;10.20;;;7.20;;
13868;SDS011;7004;48.206;16.402;2023-04-28T04:46:36;9.80;;;6.67;;
13868;SDS011;7004;48.206;16.402;2023-04-28T04:49:02;15.37;;;6.93;;
13868;SDS011;7004;48.206;16.402;2023-04-28T04:51:28;9.23;;;6.73;;
13868;SDS011;7004;48.206;16.402;2023-04-28T04:53:54;10.50;;;6.60;;
13868;SDS011;7004;48.206;16.402;2023-04-28T04:56:21;9.77;;;6.57;;
13868;SDS011;7004;48.206;16.402;2023-04-28T04:58:47;9.23;;;6.70;;
13868;SDS011;7004;48.206;16.402;2023-04-28T05:01:15;10.30;;;7.03;;
13868;SDS011;7004;48.206;16.402;2023-04-28T05:03:41;11.67;;;7.17;;
13868;SDS011;7004;48.206;16.402;2023-04-28T05:06:07;10.00;;;7.13;;
13868;SDS011;7004;48.206;16.402;2023-04-28T05:08:33;8.93;;;6.90;;
13868;SDS011;7004;48.206;16.402;2023-04-28T05:10:59;17.20;;;7.47;;
13868;SDS011;7004;48.206;16.402;2023-04-28T05:13:26;10.27;;;6.70;;
13868;SDS011;7004;48.206;16.402;2023-04-28T05:15:52;11.93;;;7.27;;
13868;SDS011;7004;48.206;16.402;2023-04-28T05:18:18;9.43;;;5.90;;
13868;SDS011;7004;48.206;16.402;2023-04-28T05:20:44;8.97;;;6.90;;
13868;SDS011;7004;48.206;16.402;2023-04-28T05:23:10;12.10;;;7.33;;
13868;SDS011;7004;48.206;16.402;2023-04-28T05:25:37;13.10;;;7.73;;
13868;SDS011;7004;48.206;16.402;2023-04-28T05:28:03;8.97;;;7.23;;
13868;SDS011;7004;48.206;16.402;2023-04-28T05:30:32;8.27;;;6.60;;
13868;SDS011;7004;48.206;16.402;2023-04-28T05:32:58;13.93;;;6.47;;
13868;SDS011;7004;48.206;16.402;2023-04-28T05:35:25;9.70;;;6.60;;
13868;SDS011;7004;48.206;16.402;2023-04-28T05:37:51;7.47;;;6.43;;
13868;SDS011;7004;48.206;16.402;2023-04-28T05:40:18;9.67;;;6.67;;
13868;SDS011;7004;48.206;16.402;2023-04-28T05:42:44;11.30;;;6.90;;
13868;SDS011;7004;48.206;16.402;2023-04-28T05:45:10;9.90;;;7.17;;
13868;SDS011;7004;48.206;16.402;2023-04-28T05:47:36;12.00;;;7.00;;
13868;SDS011;7004;48.206;16.402;2023-04-28T05:50:02;10.80;;;6.83;;
13868;SDS011;7004;48.206;16.402;2023-04-28T05:52:29;12.37;;;6.50;;
13868;SDS011;7004;48.206;16.402;2023-04-28T05:54:55;15.70;;;6.83;;
13868;SDS011;7004;48.206;16.402;2023-04-28T05:57:21;9.60;;;7.03;;
13868;SDS011;7004;48.206;16.402;2023-04-28T05:59:48;9.47;;;6.87;;
13868;SDS011;7004;48.206;16.402;2023-04-28T06:02:14;11.20;;;6.63;;
13868;SDS011;7004;48.206;16.402;2023-04-28T06:04:41;9.93;;;6.10;;
13868;SDS011;7004;48.206;16.402;2023-04-28T06:07:08;7.33;;;5.50;;
13868;SDS011;7004;48.206;16.402;2023-04-28T06:09:35;7.50;;;5.73;;
13868;SDS011;7004;48.206;16.402;2023-04-28T06:12:01;8.10;;;5.07;;
13868;SDS011;7004;48.206;16.402;2023-04-28T06:14:28;8.30;;;5.30;;
13868;SDS011;7004;48.206;16.402;2023-04-28T06:16:54;6.93;;;5.30;;
13868;SDS011;7004;48.206;16.402;2023-04-28T06:19:21;8.33;;;5.10;;
13868;SDS011;7004;48.206;16.402;2023-04-28T06:21:47;7.40;;;5.17;;
13868;SDS011;7004;48.206;16.402;2023-04-28T06:24:17;7.03;;;5.13;;
13868;SDS011;7004;48.206;16.402;2023-04-28T06:26:43;10.03;;;5.10;;
13868;SDS011;7004;48.206;16.402;2023-04-28T06:29:09;9.60;;;5.40;;
13868;SDS011;7004;48.206;16.402;2023-04-28T06:31:35;7.07;;;5.47;;
13868;SDS011;7004;48.206;16.402;2023-04-28T06:34:01;8.93;;;5.10;;
13868;SDS011;7004;48.206;16.402;2023-04-28T06:36:27;9.80;;;5.20;;
13868;SDS011;7004;48.206;16.402;2023-04-28T06:38:53;6.10;;;5.10;;
13868;SDS011;7004;48.206;16.402;2023-04-28T06:41:20;7.97;;;5.53;;
13868;SDS011;7004;48.206;16.402;2023-04-28T06:43:46;8.70;;;5.47;;
13868;SDS011;7004;48.206;16.402;2023-04-28T06:46:12;6.97;;;5.50;;
13868;SDS011;7004;48.206;16.402;2023-04-28T06:48:38;7.23;;;5.53;;
13868;SDS011;7004;48.206;16.402;2023-04-28T06:51:05;5.67;;;4.97;;
13868;SDS011;7004;48.206;16.402;2023-04-28T06:53:31;9.03;;;5.53;;
13868;SDS011;7004;48.206;16.402;2023-04-28T06:55:57;7.17;;;4.97;;
13868;SDS011;7004;48.206;16.402;2023-04-28T06:58:24;10.53;;;5.20;;
13868;SDS011;7004;48.206;16.402;2023-04-28T07:00:50;7.47;;;5.33;;
13868;SDS011;7004;48.206;16.402;2023-04-28T07:03:17;9.37;;;5.27;;
13868;SDS011;7004;48.206;16.402;2023-04-28T07:05:44;7.83;;;5.23;;
13868;SDS011;7004;48.206;16.402;2023-04-28T07:08:10;7.07;;;5.33;;
13868;SDS011;7004;48.206;16.402;2023-04-28T07:10:36;8.07;;;5.37;;
13868;SDS011;7004;48.206;16.402;2023-04-28T07:13:02;8.07;;;5.13;;
13868;SDS011;7004;48.206;16.402;2023-04-28T07:15:28;7.27;;;5.27;;
13868;SDS011;7004;48.206;16.402;2023-04-28T07:17:55;7.37;;;4.90;;
13868;SDS011;7004;48.206;16.402;2023-04-28T07:20:21;11.80;;;5.40;;
13868;SDS011;7004;48.206;16.402;2023-04-28T07:22:47;8.73;;;5.80;;
13868;SDS011;7004;48.206;16.402;2023-04-28T07:25:14;10.53;;;5.70;;
13868;SDS011;7004;48.206;16.402;2023-04-28T07:27:40;6.43;;;5.07;;
13868;SDS011;7004;48.206;16.402;2023-04-28T07:30:06;7.87;;;5.27;;
13868;SDS011;7004;48.206;16.402;2023-04-28T07:32:33;5.90;;;5.00;;
13868;SDS011;7004;48.206;16.402;2023-04-28T07:34:59;7.27;;;5.57;;
13868;SDS011;7004;48.206;16.402;2023-04-28T07:37:25;6.23;;;4.73;;
13868;SDS011;7004;48.206;16.402;2023-04-28T07:39:53;7.17;;;4.60;;
13868;SDS011;7004;48.206;16.402;2023-04-28T07:42:20;5.97;;;4.70;;
13868;SDS011;7004;48.206;16.402;2023-04-28T07:44:46;5.07;;;4.57;;
13868;SDS011;7004;48.206;16.402;2023-04-28T07:47:12;6.60;;;4.57;;
13868;SDS011;7004;48.206;16.402;2023-04-28T07:49:38;5.40;;;4.57;;
13868;SDS011;7004;48.206;16.402;2023-04-28T07:52:04;7.77;;;4.53;;
13868;SDS011;7004;48.206;16.402;2023-04-28T07:54:31;5.13;;;4.00;;
13868;SDS011;7004;48.206;16.402;2023-04-28T07:56:57;4.80;;;3.80;;
13868;SDS011;7004;48.206;16.402;2023-04-28T07:59:23;5.80;;;3.83;;
13868;SDS011;7004;48.206;16.402;2023-04-28T08:01:49;6.53;;;4.07;;
13868;SDS011;7004;48.206;16.402;2023-04-28T08:04:15;4.73;;;4.03;;
13868;SDS011;7004;48.206;16.402;2023-04-28T08:06:42;4.30;;;3.50;;
13868;SDS011;7004;48.206;16.402;2023-04-28T08:09:08;4.60;;;3.97;;
13868;SDS011;7004;48.206;16.402;2023-04-28T08:11:34;5.40;;;3.43;;
13868;SDS011;7004;48.206;16.402;2023-04-28T08:14:00;4.13;;;3.37;;
13868;SDS011;7004;48.206;16.402;2023-04-28T08:16:27;5.60;;;3.90;;
13868;SDS011;7004;48.206;16.402;2023-04-28T08:18:55;5.37;;;3.67;;
13868;SDS011;7004;48.206;16.402;2023-04-28T08:21:23;3.73;;;3.43;;
13868;SDS011;7004;48.206;16.402;2023-04-28T08:23:49;6.73;;;3.50;;
13868;SDS011;7004;48.206;16.402;2023-04-28T08:26:15;5.30;;;3.27;;
13868;SDS011;7004;48.206;16.402;2023-04-28T08:28:41;5.97;;;3.73;;
13868;SDS011;7004;48.206;16.402;2023-04-28T08:31:08;5.23;;;3.40;;
13868;SDS011;7004;48.206;16.402;2023-04-28T08:33:34;4.33;;;3.43;;
13868;SDS011;7004;48.206;16.402;2023-04-28T08:36:00;6.10;;;3.53;;
13868;SDS011;7004;48.206;16.402;2023-04-28T08:38:27;4.07;;;3.17;;
13868;SDS011;7004;48.206;16.402;2023-04-28T08:40:54;4.83;;;3.47;;
13868;SDS011;7004;48.206;16.402;2023-04-28T08:43:20;4.00;;;3.20;;
13868;SDS011;7004;48.206;16.402;2023-04-28T08:45:46;4.93;;;3.57;;
13868;SDS011;7004;48.206;16.402;2023-04-28T08:48:16;5.37;;;3.20;;
13868;SDS011;7004;48.206;16.402;2023-04-28T08:50:54;6.23;;;3.43;;
13868;SDS011;7004;48.206;16.402;2023-04-28T08:53:22;4.37;;;3.03;;
13868;SDS011;7004;48.206;16.402;2023-04-28T08:55:53;3.23;;;2.70;;
13868;SDS011;7004;48.206;16.402;2023-04-28T08:58:22;3.50;;;3.20;;
13868;SDS011;7004;48.206;16.402;2023-04-28T09:00:50;4.43;;;3.10;;
13868;SDS011;7004;48.206;16.402;2023-04-28T09:03:17;3.73;;;3.17;;
13868;SDS011;7004;48.206;16.402;2023-04-28T09:05:44;3.13;;;2.83;;
13868;SDS011;7004;48.206;16.402;2023-04-28T09:08:11;4.20;;;3.40;;
13868;SDS011;7004;48.206;16.402;2023-04-28T09:10:37;3.60;;;2.90;;
13868;SDS011;7004;48.206;16.402;2023-04-28T09:13:03;3.90;;;3.20;;
13868;SDS011;7004;48.206;16.402;2023-04-28T09:15:33;5.07;;;3.40;;
13868;SDS011;7004;48.206;16.402;2023-04-28T09:18:02;4.77;;;3.40;;
13868;SDS011;7004;48.206;16.402;2023-04-28T09:20:31;4.87;;;3.03;;
13868;SDS011;7004;48.206;16.402;2023-04-28T09:23:18;3.23;;;2.90;;
13868;SDS011;7004;48.206;16.402;2023-04-28T09:28:30;4.27;;;3.30;;
13868;SDS011;7004;48.206;16.402;2023-04-28T09:30:57;4.10;;;3.30;;
13868;SDS011;7004;48.206;16.402;2023-04-28T09:33:24;4.20;;;3.30;;
13868;SDS011;7004;48.206;16.402;2023-04-28T09:35:50;4.87;;;3.17;;
13868;SDS011;7004;48.206;16.402;2023-04-28T09:38:18;6.20;;;2.97;;
13868;SDS011;7004;48.206;16.402;2023-04-28T09:40:52;5.30;;;3.27;;
13868;SDS011;7004;48.206;16.402;2023-04-28T09:43:32;3.80;;;3.10;;
13868;SDS011;7004;48.206;16.402;2023-04-28T09:46:03;4.37;;;3.17;;
13868;SDS011;7004;48.206;16.402;2023-04-28T09:48:31;5.30;;;3.00;;
13868;SDS011;7004;48.206;16.402;2023-04-28T09:51:02;3.77;;;3.20;;
13868;SDS011;7004;48.206;16.402;2023-04-28T09:53:32;4.47;;;2.87;;
13868;SDS011;7004;48.206;16.402;2023-04-28T09:56:00;4.20;;;3.20;;
13868;SDS011;7004;48.206;16.402;2023-04-28T09:58:30;3.60;;;2.83;;
13868;SDS011;7004;48.206;16.402;2023-04-28T10:00:59;3.10;;;2.80;;
13868;SDS011;7004;48.206;16.402;2023-04-28T10:03:26;3.97;;;3.00;;
13868;SDS011;7004;48.206;16.402;2023-04-28T10:05:55;5.80;;;3.03;;
13868;SDS011;7004;48.206;16.402;2023-04-28T10:08:25;3.73;;;2.70;;
13868;SDS011;7004;48.206;16.402;2023-04-28T10:10:52;3.73;;;2.70;;
13868;SDS011;7004;48.206;16.402;2023-04-28T10:13:19;3.10;;;2.50;;
13868;SDS011;7004;48.206;16.402;2023-04-28T10:15:47;5.63;;;2.97;;
13868;SDS011;7004;48.206;16.402;2023-04-28T10:18:14;3.73;;;2.90;;
13868;SDS011;7004;48.206;16.402;2023-04-28T10:20:42;3.63;;;3.07;;
13868;SDS011;7004;48.206;16.402;2023-04-28T10:23:19;4.03;;;2.80;;
13868;SDS011;7004;48.206;16.402;2023-04-28T10:27:13;2.90;;;2.60;;
13868;SDS011;7004;48.206;16.402;2023-04-28T10:29:31;3.90;;;2.93;;
13868;SDS011;7004;48.206;16.402;2023-04-28T10:32:14;4.00;;;2.70;;
13868;SDS011;7004;48.206;16.402;2023-04-28T10:34:50;3.63;;;2.50;;
13868;SDS011;7004;48.206;16.402;2023-04-28T10:37:16;5.17;;;2.83;;
13868;SDS011;7004;48.206;16.402;2023-04-28T10:43:05;3.57;;;2.67;;
13868;SDS011;7004;48.206;16.402;2023-04-28T10:58:46;3.07;;;2.53;;
13868;SDS011;7004;48.206;16.402;2023-04-28T11:03:53;3.10;;;2.70;;
13868;SDS011;7004;48.206;16.402;2023-04-28T11:06:41;2.80;;;2.50;;
13868;SDS011;7004;48.206;16.402;2023-04-28T11:11:38;7.23;;;2.50;;
13868;SDS011;7004;48.206;16.402;2023-04-28T11:16:54;2.73;;;2.50;;
13868;SDS011;7004;48.206;16.402;2023-04-28T11:19:32;4.83;;;2.80;;
13868;SDS011;7004;48.206;16.402;2023-04-28T11:21:59;5.37;;;2.87;;
13868;SDS011;7004;48.206;16.402;2023-04-28T11:24:27;3.50;;;2.50;;
13868;SDS011;7004;48.206;16.402;2023-04-28T11:26:55;3.70;;;2.30;;
13868;SDS011;7004;48.206;16.402;2023-04-28T11:29:30;3.00;;;2.67;;
13868;SDS011;7004;48.206;16.402;2023-04-28T11:32:04;2.47;;;2.20;;
13868;SDS011;7004;48.206;16.402;2023-04-28T11:34:32;2.70;;;2.50;;
13868;SDS011;7004;48.206;16.402;2023-04-28T11:37:00;3.73;;;2.57;;
13868;SDS011;7004;48.206;16.402;2023-04-28T11:39:30;2.83;;;2.43;;
13868;SDS011;7004;48.206;16.402;2023-04-28T11:41:59;2.93;;;2.43;;
13868;SDS011;7004;48.206;16.402;2023-04-28T11:44:28;2.50;;;2.30;;
13868;SDS011;7004;48.206;16.402;2023-04-28T11:46:56;5.30;;;2.53;;
13868;SDS011;7004;48.206;16.402;2023-04-28T11:49:25;2.87;;;2.60;;
13868;SDS011;7004;48.206;16.402;2023-04-28T11:51:53;3.07;;;2.50;;
13868;SDS011;7004;48.206;16.402;2023-04-28T11:54:21;2.50;;;2.30;;
13868;SDS011;7004;48.206;16.402;2023-04-28T11:56:53;4.60;;;2.47;;
13868;SDS011;7004;48.206;16.402;2023-04-28T11:59:22;4.60;;;2.40;;
13868;SDS011;7004;48.206;16.402;2023-04-28T12:02:04;2.73;;;2.53;;
13868;SDS011;7004;48.206;16.402;2023-04-28T12:04:32;5.77;;;2.60;;
13868;SDS011;7004;48.206;16.402;2023-04-28T12:07:08;2.97;;;2.67;;
13868;SDS011;7004;48.206;16.402;2023-04-28T12:09:48;2.90;;;2.60;;
13868;SDS011;7004;48.206;16.402;2023-04-28T12:12:38;2.87;;;2.57;;
13868;SDS011;7004;48.206;16.402;2023-04-28T12:15:05;2.90;;;2.60;;
13868;SDS011;7004;48.206;16.402;2023-04-28T12:17:33;3.60;;;2.83;;
13868;SDS011;7004;48.206;16.402;2023-04-28T12:20:05;3.00;;;2.47;;
13868;SDS011;7004;48.206;16.402;2023-04-28T12:22:43;2.57;;;2.30;;
13868;SDS011;7004;48.206;16.402;2023-04-28T12:25:18;4.90;;;2.63;;
13868;SDS011;7004;48.206;16.402;2023-04-28T12:30:32;3.23;;;2.50;;
13868;SDS011;7004;48.206;16.402;2023-04-28T12:33:03;3.47;;;2.70;;
13868;SDS011;7004;48.206;16.402;2023-04-28T12:35:29;3.53;;;2.50;;
13868;SDS011;7004;48.206;16.402;2023-04-28T12:37:55;3.23;;;2.80;;
13868;SDS011;7004;48.206;16.402;2023-04-28T12:40:22;2.53;;;2.33;;
13868;SDS011;7004;48.206;16.402;2023-04-28T12:42:49;3.00;;;2.40;;
13868;SDS011;7004;48.206;16.402;2023-04-28T12:45:15;2.57;;;2.37;;
13868;SDS011;7004;48.206;16.402;2023-04-28T12:47:43;4.23;;;2.80;;
13868;SDS011;7004;48.206;16.402;2023-04-28T12:50:10;3.40;;;2.90;;
13868;SDS011;7004;48.206;16.402;2023-04-28T12:52:37;3.10;;;2.70;;
13868;SDS011;7004;48.206;16.402;2023-04-28T12:55:03;3.73;;;2.03;;
13868;SDS011;7004;48.206;16.402;2023-04-28T12:57:30;3.47;;;2.60;;
13868;SDS011;7004;48.206;16.402;2023-04-28T12:59:56;3.43;;;2.40;;
13868;SDS011;7004;48.206;16.402;2023-04-28T13:02:23;2.87;;;2.47;;
13868;SDS011;7004;48.206;16.402;2023-04-28T13:04:49;2.67;;;2.40;;
13868;SDS011;7004;48.206;16.402;2023-04-28T13:07:16;3.07;;;2.57;;
13868;SDS011;7004;48.206;16.402;2023-04-28T13:09:42;3.13;;;2.73;;
13868;SDS011;7004;48.206;16.402;2023-04-28T13:12:09;3.87;;;2.43;;
13868;SDS011;7004;48.206;16.402;2023-04-28T13:14:35;3.43;;;2.87;;
13868;SDS011;7004;48.206;16.402;2023-04-28T13:17:02;4.93;;;2.80;;
13868;SDS011;7004;48.206;16.402;2023-04-28T13:19:28;3.90;;;2.67;;
13868;SDS011;7004;48.206;16.402;2023-04-28T13:21:57;6.27;;;2.97;;
13868;SDS011;7004;48.206;16.402;2023-04-28T13:24:24;3.27;;;2.47;;
13868;SDS011;7004;48.206;16.402;2023-04-28T13:26:51;2.87;;;2.60;;
13868;SDS011;7004;48.206;16.402;2023-04-28T13:29:17;3.87;;;2.83;;
13868;SDS011;7004;48.206;16.402;2023-04-28T13:31:43;2.73;;;2.53;;
13868;SDS011;7004;48.206;16.402;2023-04-28T13:34:09;2.90;;;2.60;;
13868;SDS011;7004;48.206;16.402;2023-04-28T13:36:40;2.67;;;2.40;;
13868;SDS011;7004;48.206;16.402;2023-04-28T13:39:07;3.00;;;2.50;;
13868;SDS011;7004;48.206;16.402;2023-04-28T13:41:38;2.97;;;2.50;;
13868;SDS011;7004;48.206;16.402;2023-04-28T13:44:05;3.17;;;2.70;;
13868;SDS011;7004;48.206;16.402;2023-04-28T13:46:31;3.27;;;2.73;;
13868;SDS011;7004;48.206;16.402;2023-04-28T13:48:57;5.43;;;3.00;;
13868;SDS011;7004;48.206;16.402;2023-04-28T13:51:24;6.90;;;2.80;;
13868;SDS011;7004;48.206;16.402;2023-04-28T13:53:50;4.87;;;3.00;;
13868;SDS011;7004;48.206;16.402;2023-04-28T13:56:16;3.70;;;3.07;;
13868;SDS011;7004;48.206;16.402;2023-04-28T13:58:42;4.53;;;2.97;;
13868;SDS011;7004;48.206;16.402;2023-04-28T14:01:08;5.87;;;2.90;;
13868;SDS011;7004;48.206;16.402;2023-04-28T14:03:34;6.07;;;2.80;;
13868;SDS011;7004;48.206;16.402;2023-04-28T14:06:01;3.13;;;2.53;;
13868;SDS011;7004;48.206;16.402;2023-04-28T14:08:28;4.10;;;3.10;;
13868;SDS011;7004;48.206;16.402;2023-04-28T14:10:54;3.37;;;3.00;;
13868;SDS011;7004;48.206;16.402;2023-04-28T14:13:20;3.53;;;2.77;;
13868;SDS011;7004;48.206;16.402;2023-04-28T14:15:50;4.07;;;2.97;;
13868;SDS011;7004;48.206;16.402;2023-04-28T14:18:19;3.20;;;2.90;;
13868;SDS011;7004;48.206;16.402;2023-04-28T14:20:45;3.40;;;3.10;;
13868;SDS011;7004;48.206;16.402;2023-04-28T14:23:11;4.03;;;2.83;;
13868;SDS011;7004;48.206;16.402;2023-04-28T14:25:38;3.70;;;2.60;;
13868;SDS011;7004;48.206;16.402;2023-04-28T14:28:04;3.90;;;3.13;;
13868;SDS011;7004;48.206;16.402;2023-04-28T14:30:30;4.03;;;2.70;;
13868;SDS011;7004;48.206;16.402;2023-04-28T14:32:57;3.10;;;2.80;;
13868;SDS011;7004;48.206;16.402;2023-04-28T14:35:24;4.90;;;2.60;;
13868;SDS011;7004;48.206;16.402;2023-04-28T14:37:51;4.60;;;3.33;;
13868;SDS011;7004;48.206;16.402;2023-04-28T14:40:18;5.97;;;3.00;;
13868;SDS011;7004;48.206;16.402;2023-04-28T14:42:44;4.23;;;2.77;;
13868;SDS011;7004;48.206;16.402;2023-04-28T14:45:11;4.07;;;3.20;;
13868;SDS011;7004;48.206;16.402;2023-04-28T14:47:37;3.13;;;2.83;;
13868;SDS011;7004;48.206;16.402;2023-04-28T14:50:05;7.80;;;3.47;;
13868;SDS011;7004;48.206;16.402;2023-04-28T14:52:32;3.47;;;3.17;;
13868;SDS011;7004;48.206;16.402;2023-04-28T14:54:58;4.13;;;3.23;;
13868;SDS011;7004;48.206;16.402;2023-04-28T14:57:25;3.47;;;3.17;;
13868;SDS011;7004;48.206;16.402;2023-04-28T14:59:52;7.90;;;7.07;;
13868;SDS011;7004;48.206;16.402;2023-04-28T15:02:20;5.30;;;4.13;;
13868;SDS011;7004;48.206;16.402;2023-04-28T15:04:56;7.13;;;3.90;;
13868;SDS011;7004;48.206;16.402;2023-04-28T15:07:23;14.57;;;9.30;;
13868;SDS011;7004;48.206;16.402;2023-04-28T15:09:55;4.77;;;3.80;;
13868;SDS011;7004;48.206;16.402;2023-04-28T15:12:25;6.13;;;3.67;;
13868;SDS011;7004;48.206;16.402;2023-04-28T15:14:54;4.80;;;3.87;;
13868;SDS011;7004;48.206;16.402;2023-04-28T15:17:21;4.87;;;3.50;;
13868;SDS011;7004;48.206;16.402;2023-04-28T15:19:47;4.27;;;3.80;;